Harle — ZCTV4 — position and weather

sailwx.info

Track history (hours):
 
Tides and Currents Weather Stations Pressure Air Temp Water Temp Dewpoint Dewpoint Depression Visibility Wind Speed Wind Dir Waves Ship Positions

Harle

Last reported at 2014-Oct-28 08:23 UTC. Time now 2014-Nov-01 07:05 UTC.
Position N 37°24' W 000°49'.

Length 45 m; draft 2.7 m.

Type: Pleasure craft. MMSI: 319323000.

Date/timePositionNaut miles runAvg speedWind from/ knotsBaromVisibWave heightAir tempDewpointWater temp
2014-Oct-28 08:23N 37°24' W 000°49'1612.1
2014-Oct-28 07:06N 37°34' W 000°34'712.5
2014-Oct-28 06:33N 37°40' W 000°29'13611.8
2014-Oct-27 19:06N 39°24' E 001°22'611.3
2014-Oct-27 18:33N 39°28' E 001°28'2311.3
2014-Oct-27 16:33N 39°43' E 001°49'1111.3
2014-Oct-27 15:33N 39°51' E 002°00'1111.5
2014-Oct-27 14:33N 39°59' E 002°11'1211.6
2014-Oct-27 13:33N 40°06' E 002°22'1211.7
2014-Oct-27 12:34N 40°14' E 002°34'1211.6
2014-Oct-27 11:33N 40°22' E 002°45'1312.9
2014-Oct-27 10:33N 40°31' E 002°58'1010.3
2014-Oct-27 09:33N 40°38' E 003°08'1211.2
2014-Oct-27 08:30N 40°46' E 003°19'1411.2
2014-Oct-27 07:13N 40°55' E 003°33'1910.6
2014-Oct-27 05:27N 41°08' E 003°52'8910.7
2014-Oct-26 21:06N 42°07' E 005°21'811.4
2014-Oct-26 20:23N 42°13' E 005°29'7610.7
2014-Oct-26 13:20N 43°04' E 006°44'911.2
2014-Oct-26 12:32N 43°13' E 006°49'1111.2
2014-Oct-26 11:33N 43°23' E 006°55'1110.0
2014-Oct-26 10:29N 43°32' E 007°01'  
2014-Oct-22 16:30N 43°33' E 007°01'0 0.0
2014-Oct-21 16:06N 43°33' E 007°01'0 0.0
2014-Oct-21 15:24N 43°33' E 007°01'0 0.0
2014-Oct-21 14:06N 43°33' E 007°01'0 0.0
2014-Oct-21 12:30N 43°33' E 007°01'0 0.0
2014-Oct-20 15:12N 43°33' E 007°01'0 0.0
2014-Oct-18 15:30N 43°33' E 007°01'0 0.0
2014-Oct-18 13:27N 43°33' E 007°01'0 0.0
2014-Oct-18 12:30N 43°33' E 007°01'  
Track history (hours):
 
Tides and Currents Weather Stations Pressure Air Temp Water Temp Dewpoint Dewpoint Depression Visibility Wind Speed Wind Dir Waves Ship Positions

Harle

Last reported at 2014-Oct-28 08:23 UTC. Time now 2014-Nov-01 07:05 UTC.
Position N 37°24' W 000°49'.

Length 45 m; draft 2.7 m.

Type: Pleasure craft. MMSI: 319323000.

Date/timePositionNaut miles runAvg speedWind from/ knotsBaromVisibWave heightAir tempDewpointWater temp
2014-Oct-28 08:23N 37°24' W 000°49'1612.1
2014-Oct-28 07:06N 37°34' W 000°34'712.5
2014-Oct-28 06:33N 37°40' W 000°29'13611.8
2014-Oct-27 19:06N 39°24' E 001°22'611.3
2014-Oct-27 18:33N 39°28' E 001°28'2311.3
2014-Oct-27 16:33N 39°43' E 001°49'1111.3
2014-Oct-27 15:33N 39°51' E 002°00'1111.5
2014-Oct-27 14:33N 39°59' E 002°11'1211.6
2014-Oct-27 13:33N 40°06' E 002°22'1211.7
2014-Oct-27 12:34N 40°14' E 002°34'1211.6
2014-Oct-27 11:33N 40°22' E 002°45'1312.9
2014-Oct-27 10:33N 40°31' E 002°58'1010.3
2014-Oct-27 09:33N 40°38' E 003°08'1211.2
2014-Oct-27 08:30N 40°46' E 003°19'1411.2
2014-Oct-27 07:13N 40°55' E 003°33'1910.6
2014-Oct-27 05:27N 41°08' E 003°52'8910.7
2014-Oct-26 21:06N 42°07' E 005°21'811.4
2014-Oct-26 20:23N 42°13' E 005°29'7610.7
2014-Oct-26 13:20N 43°04' E 006°44'911.2
2014-Oct-26 12:32N 43°13' E 006°49'1111.2
2014-Oct-26 11:33N 43°23' E 006°55'1110.0
2014-Oct-26 10:29N 43°32' E 007°01'  
2014-Oct-22 16:30N 43°33' E 007°01'0 0.0
2014-Oct-21 16:06N 43°33' E 007°01'0 0.0
2014-Oct-21 15:24N 43°33' E 007°01'0 0.0
2014-Oct-21 14:06N 43°33' E 007°01'0 0.0
2014-Oct-21 12:30N 43°33' E 007°01'0 0.0
2014-Oct-20 15:12N 43°33' E 007°01'0 0.0
2014-Oct-18 15:30N 43°33' E 007°01'0 0.0
2014-Oct-18 13:27N 43°33' E 007°01'0 0.0
2014-Oct-18 12:30N 43°33' E 007°01'  

Dump ship's entire track history